Nearby METAR Reports

 

KLOT - Romeoville/Chi, Illinois, USA
Distance from station: N 3mi, 5km
Updated: Mon, 11-Nov-2019 9:15pm CST
Clear
Clear
 Wind from NNW
Wind: NNW 14 mph , 22 km/h, Gust: 24 mph , 39 km/h
Temperature: 16°F , -9°C
Wind Chill: 2°F , -17°C
Dew Point: 7°F , -14°C
Humidity: 67%
Barometer: 30.39 inHg , 1029.1 hPa
Clouds: Clear
Visibility: 10 miles , 16 km
2019/11/12 03:15 KLOT 120315Z AUTO 33012G21KT 10SM CLR M09/M14 A3039 RMK AO2 T10871140
KJOT - Joliet, Illinois, USA
Distance from station: WSW 5mi, 7km
Updated: Mon, 11-Nov-2019 9:15pm CST
Clear
Clear
 Wind from NNW
Wind: NNW 8 mph , 13 km/h, Gust: 17 mph , 28 km/h
Barometer: 30.39 inHg , 1029.1 hPa
Clouds: Clear
Visibility: 10 miles , 16 km
2019/11/12 03:15 KJOT 120315Z AUTO 34007G15KT 10SM CLR A3039 RMK AO2
 
KC09 - Morris-Washburn, Illinois, USA
Distance from station: WSW 18mi, 29km
Updated: Mon, 11-Nov-2019 9:15pm CST
Clear
Clear
 Wind from NW
Wind: NW 7 mph , 11 km/h
Temperature: 16°F , -9°C
Wind Chill: 6°F , -14°C
Dew Point: 5°F , -15°C
Humidity: 62%
Barometer: 30.41 inHg , 1029.8 hPa
Clouds: Clear
Visibility: 10 miles , 16 km
2019/11/12 03:15 KC09 120315Z AUTO 32006KT 10SM CLR M09/M15 A3041 RMK AO2 T10921150
KARR - Chicago/Aurora, Illinois, USA
Distance from station: NW 24mi, 39km
Updated: Mon, 11-Nov-2019 8:52pm CST
Clear
Clear
 Wind from NW
Wind: NW 12 mph , 19 km/h
Temperature: 12°F , -11°C
Wind Chill: -2°F , -19°C
Dew Point: 3°F , -16°C
Humidity: 67%
Barometer: 30.39 inHg , 1029.1 hPa
Clouds: Clear
Visibility: 10 miles , 16 km
2019/11/12 02:52 KARR 120252Z 31010KT 10SM UP CLR M11/M16 A3039 RMK AO2 SLP305 P0000 60000 T11061161 51018 $
 
KMDW - Chicago, Illinois, USA
Distance from station: NE 25mi, 39km
Updated: Mon, 11-Nov-2019 8:53pm CST
Few Clouds
Few Clouds
 Wind from NW
Wind: NW 17 mph , 28 km/h, Gust: 30 mph , 48 km/h
Temperature: 18°F , -8°C
Wind Chill: 3°F , -16°C
Dew Point: 5°F , -15°C
Humidity: 58%
Barometer: 30.37 inHg , 1028.4 hPa
Clouds: Few Clouds
Visibility: 10 miles , 16 km
Cloud details: Few Clouds 6000 ft
2019/11/12 02:53 KMDW 120253Z 32015G26KT 10SM FEW060 M08/M15 A3037 RMK AO2 PK WND 33028/0240 SLP301 60000 T10781150 53017 $
KDPA - Chicago/Dupage, Illinois, USA
Distance from station: NNW 26mi, 42km
Updated: Mon, 11-Nov-2019 8:52pm CST
Clear
Clear
 Wind from NNW
Wind: NNW 14 mph , 22 km/h
Temperature: 16°F , -9°C
Wind Chill: 2°F , -17°C
Dew Point: 3°F , -16°C
Humidity: 57%
Barometer: 30.38 inHg , 1028.8 hPa
Clouds: Clear
Visibility: 10 miles , 16 km
2019/11/12 02:52 KDPA 120252Z 33012KT 10SM CLR M09/M16 A3038 RMK AO2 SLP301 T10941156 51018
 
KIGQ - Chicago/Lansing, Illinois, USA
Distance from station: E 30mi, 48km
Updated: Mon, 11-Nov-2019 9:15pm CST
Overcast
Overcast
 Wind from NNW
Wind: NNW 12 mph , 19 km/h, Gust: 25 mph , 41 km/h
Temperature: 19°F , -7°C
Wind Chill: 6°F , -14°C
Dew Point: 9°F , -13°C
Humidity: 63%
Barometer: 30.36 inHg , 1028.1 hPa
Clouds: Overcast
Visibility: 10 miles , 16 km
Cloud details: Overcast 5500 ft
2019/11/12 03:15 KIGQ 120315Z AUTO 33010G22KT 10SM OVC055 M07/M13 A3036 RMK AO2 T10751129
KORD - Chicago O'hare, Illinois, USA
Distance from station: NNE 31mi, 50km
Updated: Mon, 11-Nov-2019 8:51pm CST
Few Clouds
Few Clouds
 Wind from NW
Wind: NW 20 mph , 31 km/h, Gust: 29 mph , 46 km/h
Temperature: 16°F , -9°C
Wind Chill: -1°F , -18°C
Dew Point: 3°F , -16°C
Humidity: 57%
Barometer: 30.37 inHg , 1028.4 hPa
Clouds: Few Clouds
Visibility: 10 miles , 16 km
Cloud details: Few Clouds 5000 ft
2019/11/12 02:51 KORD 120251Z 32017G25KT 10SM FEW050 M09/M16 A3037 RMK AO2 PK WND 31028/0215 SLP295 T10891156 51017 $
 
KGYY - Gary Regional, Indiana, USA
Distance from station: E 36mi, 58km
Updated: Mon, 11-Nov-2019 8:45pm CST
Overcast
Overcast
 Wind from WNW
Wind: WNW 14 mph , 22 km/h, Gust: 25 mph , 41 km/h
Temperature: 21°F , -6°C
Wind Chill: 8°F , -13°C
Dew Point: 9°F , -13°C
Humidity: 58%
Barometer: 30.35 inHg , 1027.8 hPa
Clouds: Overcast
Visibility: 10 miles , 16 km
Cloud details: Partly cloudy 3200 ft
Overcast 6000 ft
2019/11/12 02:45 KGYY 120245Z 30012G22KT 10SM SCT032 OVC060 M06/M13 A3035
KIKK - Kankakee, Illinois, USA
Distance from station: SSE 36mi, 58km
Updated: Mon, 11-Nov-2019 9:15pm CST
Clear
Clear
 Wind from NW
Wind: NW 12 mph , 19 km/h, Gust: 20 mph , 31 km/h
Temperature: 18°F , -8°C
Wind Chill: 5°F , -15°C
Dew Point: 7°F , -14°C
Humidity: 62%
Barometer: 30.39 inHg , 1029.1 hPa
Clouds: Clear
Visibility: 10 miles , 16 km
2019/11/12 03:15 KIKK 120315Z AUTO 32010G17KT 10SM CLR M08/M14 A3039 RMK AO2 T10811141
 
KDKB - De Kalb, Illinois, USA
Distance from station: NW 40mi, 65km
Updated: Mon, 11-Nov-2019 9:15pm CST
Clear
Clear
 Wind from NW
Wind: NW 12 mph , 19 km/h
Temperature: 14°F , -10°C
Wind Chill: 0°F , -18°C
Dew Point: 1°F , -17°C
Humidity: 57%
Barometer: 30.40 inHg , 1029.5 hPa
Clouds: Clear
Visibility: 10 miles , 16 km
2019/11/12 03:15 KDKB 120315Z AUTO 32010KT 10SM CLR M10/M17 A3040 RMK AO2 T11021169
KPWK - Palwaukee, Illinois, USA
Distance from station: NNE 41mi, 65km
Updated: Mon, 11-Nov-2019 8:52pm CST
Clear
Clear
 Wind from NNW
Wind: NNW 18 mph , 30 km/h, Gust: 25 mph , 41 km/h
Temperature: 18°F , -8°C
Wind Chill: 2°F , -17°C
Dew Point: 3°F , -16°C
Humidity: 53%
Barometer: 30.38 inHg , 1028.8 hPa
Clouds: Clear
Visibility: 10 miles , 16 km
2019/11/12 02:52 KPWK 120252Z 33016G22KT 10SM CLR M08/M16 A3038 RMK AO2 SLP299 T10831161 51016 $